Time;durP1;ratioP1;P1;durP2;ratioP2;P2;SDS_P1;SDS_P2;PMS_P1;PMS_P2;Temp;Humidity;BMP_temperature;BMP_pressure;BME280_temperature;BME280_humidity;BME280_pressure;Samples;Min_cycle;Max_cycle;Signal;HPM_P1;HPM_P2
2022/01/30 00:01:20;;;;;;;32.30;5.45;;;;;;;;;;5037076;28;92421;-75
2022/01/30 00:03:47;;;;;;;28.00;5.72;;;;;;;;;;5036825;28;93846;-75
2022/01/30 00:06:13;;;;;;;31.73;5.15;;;;;;;;;;5036643;28;92863;-75
2022/01/30 00:08:39;;;;;;;20.98;4.35;;;;;;;;;;5036915;28;92237;-75
2022/01/30 00:11:14;;;;;;;25.25;4.90;;;;;;;;;;5036920;28;93922;-75
2022/01/30 00:13:40;;;;;;;32.25;4.80;;;;;;;;;;5042020;28;92911;-74
2022/01/30 00:16:09;;;;;;;31.95;5.00;;;;;;;;;;5040411;28;92823;-75
2022/01/30 00:18:49;;;;;;;28.05;4.85;;;;;;;;;;5022686;28;93690;-75
2022/01/30 00:21:31;;;;;;;24.55;4.75;;;;;;;;;;5038731;28;94755;-74
2022/01/30 00:24:06;;;;;;;16.30;4.03;;;;;;;;;;5040011;28;94955;-75
2022/01/30 00:26:35;;;;;;;26.35;4.30;;;;;;;;;;5039901;28;93635;-75
2022/01/30 00:29:02;;;;;;;34.90;5.63;;;;;;;;;;5005619;28;92352;-76
2022/01/30 00:31:28;;;;;;;32.75;4.68;;;;;;;;;;5022490;28;95476;-75
2022/01/30 00:34:16;;;;;;;27.08;4.95;;;;;;;;;;5039447;28;93667;-75
2022/01/30 00:36:42;;;;;;;28.80;4.40;;;;;;;;;;5025531;28;92553;-75
2022/01/30 00:39:08;;;;;;;24.52;5.22;;;;;;;;;;5022682;28;94327;-75
2022/01/30 00:41:35;;;;;;;23.80;4.10;;;;;;;;;;5039927;28;92291;-74
2022/01/30 00:44:01;;;;;;;24.85;4.63;;;;;;;;;;5040099;28;93204;-74
2022/01/30 00:46:28;;;;;;;26.05;4.18;;;;;;;;;;5038159;28;95300;-75
2022/01/30 00:48:54;;;;;;;26.30;5.07;;;;;;;;;;5021461;28;93564;-75
2022/01/30 00:51:21;;;;;;;29.25;4.97;;;;;;;;;;5021770;28;95662;-75
2022/01/30 00:53:47;;;;;;;17.25;3.75;;;;;;;;;;5021465;28;96500;-74
2022/01/30 00:56:13;;;;;;;23.88;3.95;;;;;;;;;;5042872;28;92383;-74
2022/01/30 00:58:40;;;;;;;17.70;3.28;;;;;;;;;;5039528;28;93043;-75
2022/01/30 01:01:06;;;;;;;25.92;4.05;;;;;;;;;;5021360;28;92419;-74
2022/01/30 01:03:33;;;;;;;28.85;4.63;;;;;;;;;;5021722;28;94298;-74
2022/01/30 01:06:02;;;;;;;29.25;3.95;;;;;;;;;;5039305;28;93612;-75
2022/01/30 01:08:46;;;;;;;34.13;5.05;;;;;;;;;;5021410;28;92475;-75
2022/01/30 01:20:47;;;;;;;25.05;3.72;;;;;;;;;;4996355;28;96051;-75
2022/01/30 01:25:02;;;;;;;29.00;5.35;;;;;;;;;;5020596;28;96040;-74
2022/01/30 01:27:29;;;;;;;24.92;4.65;;;;;;;;;;5039033;28;93109;-75
2022/01/30 01:29:55;;;;;;;21.83;4.60;;;;;;;;;;5039496;28;92590;-74
2022/01/30 01:32:22;;;;;;;28.58;4.63;;;;;;;;;;5039252;28;92885;-74
2022/01/30 01:34:48;;;;;;;20.77;3.97;;;;;;;;;;5038458;28;93942;-74
2022/01/30 01:37:15;;;;;;;30.75;4.13;;;;;;;;;;5037485;28;95407;-74
2022/01/30 01:39:43;;;;;;;25.17;3.92;;;;;;;;;;5021002;28;98295;-74
2022/01/30 01:42:10;;;;;;;26.90;4.18;;;;;;;;;;5023777;28;93999;-74
2022/01/30 01:44:45;;;;;;;18.27;3.83;;;;;;;;;;5021012;28;96280;-75
2022/01/30 01:47:12;;;;;;;20.38;3.70;;;;;;;;;;5020273;28;97512;-74
2022/01/30 01:49:40;;;;;;;29.73;4.55;;;;;;;;;;5020434;28;92414;-74
2022/01/30 01:52:21;;;;;;;22.27;4.72;;;;;;;;;;5038632;28;92366;-75
2022/01/30 01:54:50;;;;;;;28.90;4.00;;;;;;;;;;5021045;28;93577;-74
2022/01/30 01:57:17;;;;;;;32.97;5.63;;;;;;;;;;5020479;28;92268;-74
2022/01/30 01:59:50;;;;;;;25.60;4.00;;;;;;;;;;5020127;28;94427;-74
2022/01/30 02:02:36;;;;;;;23.02;3.85;;;;;;;;;;5036326;28;96680;-76
2022/01/30 02:05:05;;;;;;;27.13;4.43;;;;;;;;;;5023751;28;92476;-75
2022/01/30 02:10:02;;;;;;;24.77;3.78;;;;;;;;;;5020397;28;92392;-76
2022/01/30 02:12:37;;;;;;;34.33;4.00;;;;;;;;;;5038311;28;92928;-75
2022/01/30 02:26:06;;;;;;;28.27;3.70;;;;;;;;;;5012460;27;92460;-75
2022/01/30 02:28:34;;;;;;;18.63;3.90;;;;;;;;;;5010668;27;96672;-74
2022/01/30 02:31:07;;;;;;;24.20;3.78;;;;;;;;;;5024629;27;92428;-75
2022/01/30 02:33:34;;;;;;;23.75;4.03;;;;;;;;;;5006433;27;95397;-74
2022/01/30 02:36:01;;;;;;;23.30;3.28;;;;;;;;;;5010133;27;95710;-75
2022/01/30 02:38:28;;;;;;;14.13;3.00;;;;;;;;;;5009788;27;92440;-75
2022/01/30 02:40:56;;;;;;;18.45;3.35;;;;;;;;;;5026061;27;93470;-75
2022/01/30 02:43:29;;;;;;;21.77;3.22;;;;;;;;;;5010594;27;95547;-75
2022/01/30 02:46:44;;;;;;;17.90;2.70;;;;;;;;;;5008259;27;91587;-75
2022/01/30 02:48:56;;;;;;;20.50;2.30;;;;;;;;;;5009655;27;95107;-74
2022/01/30 02:51:32;;;;;;;13.57;2.28;;;;;;;;;;5014100;28;94314;-75
2022/01/30 02:54:05;;;;;;;16.40;2.70;;;;;;;;;;5007629;28;95327;-75
2022/01/30 02:56:37;;;;;;;13.27;2.63;;;;;;;;;;5010065;27;95702;-74
2022/01/30 02:59:03;;;;;;;15.48;2.70;;;;;;;;;;5007574;27;92515;-74
2022/01/30 03:01:30;;;;;;;20.77;3.05;;;;;;;;;;5010932;27;96022;-74
2022/01/30 03:03:56;;;;;;;21.48;2.67;;;;;;;;;;5007386;28;95935;-74
2022/01/30 03:06:23;;;;;;;14.27;3.00;;;;;;;;;;5009249;27;92490;-74
2022/01/30 03:08:49;;;;;;;23.98;3.50;;;;;;;;;;5008249;28;95313;-74
2022/01/30 03:11:16;;;;;;;29.83;3.25;;;;;;;;;;5010841;28;95113;-74
2022/01/30 03:13:42;;;;;;;17.85;3.10;;;;;;;;;;5008747;27;94845;-75
2022/01/30 03:16:08;;;;;;;23.05;3.03;;;;;;;;;;5008853;27;95749;-75
2022/01/30 03:18:36;;;;;;;19.90;2.95;;;;;;;;;;5019771;27;94770;-74
2022/01/30 03:21:03;;;;;;;20.63;2.88;;;;;;;;;;5006177;28;97864;-74
2022/01/30 03:23:29;;;;;;;17.92;2.72;;;;;;;;;;5006685;28;95426;-74
2022/01/30 03:25:59;;;;;;;19.45;3.08;;;;;;;;;;5003458;28;92466;-75
2022/01/30 03:29:04;;;;;;;24.42;3.20;;;;;;;;;;4999192;28;95035;-75
2022/01/30 03:31:37;;;;;;;17.25;3.75;;;;;;;;;;4998639;28;95631;-74
2022/01/30 03:34:06;;;;;;;18.87;3.03;;;;;;;;;;5002272;28;92421;-74
2022/01/30 03:36:40;;;;;;;16.33;2.85;;;;;;;;;;4999615;28;94893;-74
2022/01/30 03:39:07;;;;;;;17.92;2.50;;;;;;;;;;4999045;28;92443;-74
2022/01/30 03:41:33;;;;;;;12.27;2.20;;;;;;;;;;5017176;28;92689;-73
2022/01/30 03:44:02;;;;;;;15.88;2.08;;;;;;;;;;4996631;28;97335;-74
2022/01/30 03:46:29;;;;;;;15.27;2.75;;;;;;;;;;4998826;28;92396;-73
2022/01/30 03:49:16;;;;;;;14.73;3.13;;;;;;;;;;4998854;28;95759;-75
2022/01/30 03:51:46;;;;;;;16.67;2.78;;;;;;;;;;4998544;28;95625;-74
2022/01/30 03:54:21;;;;;;;13.80;2.47;;;;;;;;;;4998774;28;92315;-74
2022/01/30 03:56:47;;;;;;;20.75;2.53;;;;;;;;;;5001808;28;94526;-74
2022/01/30 03:59:14;;;;;;;14.57;2.33;;;;;;;;;;4999078;28;92299;-74
2022/01/30 04:01:41;;;;;;;15.38;2.80;;;;;;;;;;4999519;28;95164;-75
2022/01/30 04:04:08;;;;;;;22.17;3.10;;;;;;;;;;4998700;28;95415;-74
2022/01/30 04:06:35;;;;;;;18.15;2.60;;;;;;;;;;4998835;28;92429;-74
2022/01/30 04:09:11;;;;;;;15.48;3.40;;;;;;;;;;4996797;28;94909;-74
2022/01/30 04:11:49;;;;;;;22.10;2.63;;;;;;;;;;4998539;28;96291;-74
2022/01/30 04:14:25;;;;;;;10.85;2.05;;;;;;;;;;4998938;28;92422;-74
2022/01/30 04:17:18;;;;;;;20.58;3.20;;;;;;;;;;4978329;28;92498;-74
2022/01/30 04:19:50;;;;;;;18.02;3.00;;;;;;;;;;5001621;28;96464;-75
2022/01/30 04:22:27;;;;;;;15.20;2.45;;;;;;;;;;5016498;28;93304;-75
2022/01/30 04:25:12;;;;;;;19.05;2.55;;;;;;;;;;4998285;28;95177;-75
2022/01/30 04:27:38;;;;;;;14.07;2.70;;;;;;;;;;4999022;28;93515;-75
2022/01/30 04:30:25;;;;;;;25.13;3.28;;;;;;;;;;5015605;28;92433;-75
2022/01/30 04:33:09;;;;;;;20.38;2.88;;;;;;;;;;4998469;28;96230;-75
2022/01/30 04:36:01;;;;;;;22.10;3.25;;;;;;;;;;4996822;28;94792;-75
2022/01/30 04:39:13;;;;;;;18.70;3.33;;;;;;;;;;4998407;28;98665;-75
2022/01/30 05:00:04;;;;;;;;;;;;;;;;;;4999993;28;92489;-75
2022/01/30 05:05:46;;;;;;;18.95;2.53;;;;;;;;;;4999508;28;98106;-74
2022/01/30 05:08:32;;;;;;;17.98;3.00;;;;;;;;;;5001515;28;92347;-74
2022/01/30 05:11:11;;;;;;;27.48;3.03;;;;;;;;;;5022281;28;93299;-75
2022/01/30 05:13:58;;;;;;;17.70;2.65;;;;;;;;;;5001196;28;92364;-74
2022/01/30 05:16:35;;;;;;;22.38;3.15;;;;;;;;;;5017547;28;93103;-74
2022/01/30 05:19:14;;;;;;;20.95;3.65;;;;;;;;;;5001231;28;95974;-75
2022/01/30 05:21:53;;;;;;;18.17;3.00;;;;;;;;;;5001512;28;92378;-74
2022/01/30 05:24:38;;;;;;;26.83;3.40;;;;;;;;;;5017171;28;92485;-75
2022/01/30 05:27:14;;;;;;;16.20;3.75;;;;;;;;;;5018877;28;93398;-74
2022/01/30 05:29:40;;;;;;;18.63;2.92;;;;;;;;;;5017726;28;92378;-75
2022/01/30 05:32:07;;;;;;;20.75;3.78;;;;;;;;;;5019524;28;94683;-75
2022/01/30 05:34:43;;;;;;;18.63;3.50;;;;;;;;;;5018721;28;92381;-75
2022/01/30 05:37:27;;;;;;;18.60;3.13;;;;;;;;;;5019016;28;93699;-76
2022/01/30 05:40:32;;;;;;;26.02;3.20;;;;;;;;;;5018137;28;94535;-75
2022/01/30 05:43:18;;;;;;;17.95;3.17;;;;;;;;;;5001097;28;92492;-75
2022/01/30 05:45:49;;;;;;;21.92;3.83;;;;;;;;;;5017455;28;93262;-75
2022/01/30 05:48:51;;;;;;;27.33;3.58;;;;;;;;;;4956625;28;92858;-74
2022/01/30 05:51:41;;;;;;;21.35;3.03;;;;;;;;;;4988716;28;91541;-75
2022/01/30 05:54:17;;;;;;;29.85;3.30;;;;;;;;;;5001114;28;93288;-75
2022/01/30 05:56:43;;;;;;;18.33;4.15;;;;;;;;;;5003691;28;95302;-73
2022/01/30 05:59:18;;;;;;;26.40;3.45;;;;;;;;;;4999014;28;95292;-74
2022/01/30 06:02:03;;;;;;;19.10;3.17;;;;;;;;;;5016749;28;92642;-73
2022/01/30 06:04:31;;;;;;;21.98;3.38;;;;;;;;;;5000658;28;92277;-74
2022/01/30 06:07:00;;;;;;;31.77;3.50;;;;;;;;;;5000873;28;95107;-75
2022/01/30 06:09:27;;;;;;;24.15;3.90;;;;;;;;;;5000359;28;95630;-74
2022/01/30 06:11:55;;;;;;;19.65;3.65;;;;;;;;;;5000229;28;92362;-75
2022/01/30 06:14:23;;;;;;;22.77;3.90;;;;;;;;;;5000674;28;95767;-75
2022/01/30 06:16:58;;;;;;;18.75;4.13;;;;;;;;;;5000690;28;93278;-75
2022/01/30 06:19:52;;;;;;;21.05;4.50;;;;;;;;;;5005072;28;92325;-76
2022/01/30 06:22:31;;;;;;;27.40;3.63;;;;;;;;;;5015976;28;92977;-74
2022/01/30 06:25:16;;;;;;;27.65;4.97;;;;;;;;;;5015058;28;94751;-75
2022/01/30 06:28:15;;;;;;;29.05;3.85;;;;;;;;;;5016919;28;96591;-75
2022/01/30 06:31:10;;;;;;;27.08;4.20;;;;;;;;;;4945946;28;92753;-75
2022/01/30 06:33:57;;;;;;;22.98;3.42;;;;;;;;;;4976628;28;93840;-74
2022/01/30 06:36:29;;;;;;;23.17;3.20;;;;;;;;;;5017508;28;92186;-75
2022/01/30 06:39:07;;;;;;;28.33;4.07;;;;;;;;;;4999907;28;94695;-75
2022/01/30 06:41:56;;;;;;;29.70;4.80;;;;;;;;;;5011894;28;92626;-75
2022/01/30 06:45:01;;;;;;;29.27;4.55;;;;;;;;;;5020489;28;93734;-75
2022/01/30 06:47:59;;;;;;;26.35;4.10;;;;;;;;;;4994481;28;92133;-75
2022/01/30 06:50:45;;;;;;;30.17;4.22;;;;;;;;;;5017109;28;92417;-75
2022/01/30 06:53:34;;;;;;;28.13;3.95;;;;;;;;;;5015170;28;96971;-75
2022/01/30 06:56:19;;;;;;;28.92;3.70;;;;;;;;;;5016037;28;92337;-75
2022/01/30 06:59:03;;;;;;;32.40;4.50;;;;;;;;;;5017065;28;92341;-75
2022/01/30 07:01:52;;;;;;;36.92;4.57;;;;;;;;;;5017005;28;92910;-75
2022/01/30 07:04:48;;;;;;;30.00;4.22;;;;;;;;;;4962941;28;92373;-75
2022/01/30 07:07:30;;;;;;;26.25;4.55;;;;;;;;;;4999744;28;94044;-75
2022/01/30 07:09:56;;;;;;;36.40;4.15;;;;;;;;;;5020471;28;93054;-77
2022/01/30 07:12:23;;;;;;;35.28;4.72;;;;;;;;;;5017725;28;93320;-75
2022/01/30 07:14:50;;;;;;;33.22;4.85;;;;;;;;;;5017353;28;93366;-75
2022/01/30 07:17:17;;;;;;;25.48;4.88;;;;;;;;;;5017446;28;92292;-76
2022/01/30 07:19:43;;;;;;;32.58;4.32;;;;;;;;;;5015723;28;95714;-75
2022/01/30 07:22:09;;;;;;;36.25;4.20;;;;;;;;;;5016096;28;93547;-75
2022/01/30 07:24:36;;;;;;;31.88;4.57;;;;;;;;;;5016457;28;92309;-75
2022/01/30 07:27:02;;;;;;;26.55;4.18;;;;;;;;;;5017195;28;93579;-75
2022/01/30 07:29:28;;;;;;;31.27;4.57;;;;;;;;;;5017099;28;93675;-75
2022/01/30 07:31:55;;;;;;;25.88;4.15;;;;;;;;;;5019955;28;92153;-75
2022/01/30 07:34:22;;;;;;;28.33;4.50;;;;;;;;;;5017062;28;93276;-75
2022/01/30 07:36:49;;;;;;;29.60;4.60;;;;;;;;;;5019614;27;91591;-74
2022/01/30 07:39:16;;;;;;;38.15;4.25;;;;;;;;;;5028168;27;92769;-74
2022/01/30 07:41:43;;;;;;;22.48;3.83;;;;;;;;;;5021003;27;93987;-74
2022/01/30 07:44:13;;;;;;;29.55;3.65;;;;;;;;;;5009185;28;94627;-74
2022/01/30 07:46:41;;;;;;;29.20;4.03;;;;;;;;;;5006963;27;97771;-74
2022/01/30 07:49:08;;;;;;;35.58;4.53;;;;;;;;;;5027531;27;93327;-74
2022/01/30 07:51:34;;;;;;;30.58;4.55;;;;;;;;;;5029004;27;92376;-74
2022/01/30 07:54:00;;;;;;;31.50;4.93;;;;;;;;;;5024378;27;93081;-73
2022/01/30 07:56:27;;;;;;;24.90;4.35;;;;;;;;;;5025162;27;92336;-74
2022/01/30 07:58:53;;;;;;;25.85;5.13;;;;;;;;;;5026477;27;93414;-73
2022/01/30 08:01:20;;;;;;;26.45;3.90;;;;;;;;;;5025195;27;93173;-75
2022/01/30 08:03:46;;;;;;;28.85;4.28;;;;;;;;;;5024670;27;92438;-74
2022/01/30 08:06:13;;;;;;;35.55;4.78;;;;;;;;;;5027040;27;93416;-75
2022/01/30 08:08:39;;;;;;;31.00;4.47;;;;;;;;;;5024423;27;96040;-75
2022/01/30 08:11:09;;;;;;;30.25;4.75;;;;;;;;;;5026290;27;92707;-75
2022/01/30 08:13:35;;;;;;;30.60;4.38;;;;;;;;;;5029309;27;93272;-74
2022/01/30 08:16:02;;;;;;;20.33;4.30;;;;;;;;;;5024630;27;92400;-74
2022/01/30 08:18:28;;;;;;;29.35;4.82;;;;;;;;;;5027241;27;93411;-74
2022/01/30 08:20:55;;;;;;;30.00;5.72;;;;;;;;;;5023156;27;94114;-74
2022/01/30 08:23:23;;;;;;;27.40;4.68;;;;;;;;;;5027219;27;92377;-74
2022/01/30 08:25:50;;;;;;;30.27;4.80;;;;;;;;;;5024116;27;93370;-73
2022/01/30 08:28:16;;;;;;;40.20;5.45;;;;;;;;;;5023634;27;93776;-74
2022/01/30 08:30:43;;;;;;;36.53;4.85;;;;;;;;;;5025800;27;92344;-73
2022/01/30 08:33:09;;;;;;;36.05;4.55;;;;;;;;;;5024881;27;95403;-73
2022/01/30 08:35:36;;;;;;;41.22;4.70;;;;;;;;;;5030774;27;92616;-75
2022/01/30 08:38:02;;;;;;;28.17;4.63;;;;;;;;;;5029692;27;92912;-74
2022/01/30 08:40:29;;;;;;;36.25;5.35;;;;;;;;;;5027604;27;93563;-74
2022/01/30 08:42:56;;;;;;;31.98;4.90;;;;;;;;;;5026509;27;92478;-74
2022/01/30 08:45:22;;;;;;;33.50;5.60;;;;;;;;;;5028360;27;93040;-73
2022/01/30 08:47:50;;;;;;;34.47;4.97;;;;;;;;;;5029421;27;93630;-73
2022/01/30 08:50:17;;;;;;;34.25;5.18;;;;;;;;;;5027774;27;91638;-73
2022/01/30 08:52:43;;;;;;;34.72;4.55;;;;;;;;;;5008162;27;94716;-74
2022/01/30 08:55:11;;;;;;;26.35;4.40;;;;;;;;;;5027346;27;93700;-73
2022/01/30 08:57:37;;;;;;;38.20;6.35;;;;;;;;;;5030013;27;95391;-74
2022/01/30 09:00:06;;;;;;;40.90;5.55;;;;;;;;;;5025579;27;93665;-74
2022/01/30 09:02:33;;;;;;;31.33;5.05;;;;;;;;;;5026744;27;94547;-74
2022/01/30 09:04:59;;;;;;;37.35;5.60;;;;;;;;;;5007774;27;93455;-75
2022/01/30 09:07:25;;;;;;;26.92;4.18;;;;;;;;;;5033946;27;93687;-74
2022/01/30 09:09:52;;;;;;;34.35;4.80;;;;;;;;;;5028322;27;92348;-74
2022/01/30 09:12:18;;;;;;;31.92;4.72;;;;;;;;;;5027337;27;93387;-73
2022/01/30 09:14:44;;;;;;;32.78;5.90;;;;;;;;;;5029849;27;93094;-75
2022/01/30 09:17:13;;;;;;;25.08;4.88;;;;;;;;;;5031807;27;92959;-73
2022/01/30 09:19:46;;;;;;;44.78;5.35;;;;;;;;;;5032626;27;93259;-74
2022/01/30 09:22:14;;;;;;;34.42;5.65;;;;;;;;;;5025420;27;94662;-74
2022/01/30 09:24:41;;;;;;;34.75;4.88;;;;;;;;;;5026289;27;95788;-74
2022/01/30 09:27:08;;;;;;;41.08;5.03;;;;;;;;;;5030300;27;94246;-74
2022/01/30 09:29:35;;;;;;;35.03;4.95;;;;;;;;;;5030784;27;92317;-74
2022/01/30 09:32:02;;;;;;;35.25;5.38;;;;;;;;;;5027709;27;93333;-71
2022/01/30 09:34:29;;;;;;;33.28;4.78;;;;;;;;;;5025945;27;93928;-70
2022/01/30 09:36:56;;;;;;;34.47;5.28;;;;;;;;;;5028234;27;92380;-73
2022/01/30 09:39:23;;;;;;;36.55;5.78;;;;;;;;;;5035073;27;94775;-70
2022/01/30 09:41:50;;;;;;;26.80;4.78;;;;;;;;;;5021057;27;92363;-72
2022/01/30 09:44:18;;;;;;;31.15;5.45;;;;;;;;;;5018855;28;93453;-73
2022/01/30 09:46:44;;;;;;;32.22;6.32;;;;;;;;;;5016598;28;95862;-73
2022/01/30 09:49:11;;;;;;;40.58;6.65;;;;;;;;;;5018636;28;92599;-73
2022/01/30 09:51:38;;;;;;;32.10;5.93;;;;;;;;;;5018318;28;92828;-73
2022/01/30 09:54:06;;;;;;;37.97;5.10;;;;;;;;;;5018301;28;93441;-73
2022/01/30 09:56:32;;;;;;;36.47;6.03;;;;;;;;;;5018689;28;92488;-73
2022/01/30 09:58:58;;;;;;;33.65;5.15;;;;;;;;;;5018483;28;92512;-73
2022/01/30 10:01:30;;;;;;;36.38;5.18;;;;;;;;;;5021503;28;93751;-73
2022/01/30 10:03:57;;;;;;;28.50;4.57;;;;;;;;;;5018789;28;93590;-72
2022/01/30 10:06:29;;;;;;;30.27;5.40;;;;;;;;;;5017835;28;93401;-76
2022/01/30 10:08:57;;;;;;;39.70;5.63;;;;;;;;;;5018156;28;92227;-74
2022/01/30 10:11:32;;;;;;;50.13;6.03;;;;;;;;;;5016833;28;94779;-71
2022/01/30 10:14:10;;;;;;;27.70;4.93;;;;;;;;;;5018044;28;93758;-72
2022/01/30 10:16:40;;;;;;;37.83;6.35;;;;;;;;;;5018273;28;92314;-72
2022/01/30 10:19:19;;;;;;;31.45;5.03;;;;;;;;;;5017701;28;93598;-72
2022/01/30 10:21:47;;;;;;;36.13;5.57;;;;;;;;;;5018004;28;93452;-72
2022/01/30 10:24:21;;;;;;;34.67;5.20;;;;;;;;;;5021185;28;92303;-71
2022/01/30 10:26:47;;;;;;;36.38;5.50;;;;;;;;;;5017741;28;93055;-72
2022/01/30 10:29:28;;;;;;;29.50;5.13;;;;;;;;;;5018085;28;93492;-74
2022/01/30 10:32:07;;;;;;;29.08;4.93;;;;;;;;;;5017756;28;92288;-72
2022/01/30 10:34:34;;;;;;;42.72;5.97;;;;;;;;;;5017751;28;93516;-70
2022/01/30 10:37:30;;;;;;;42.50;6.10;;;;;;;;;;5015828;28;94709;-72
2022/01/30 10:40:13;;;;;;;33.75;4.97;;;;;;;;;;4995751;28;96443;-73
2022/01/30 10:42:50;;;;;;;30.73;5.32;;;;;;;;;;5017764;28;93572;-72
2022/01/30 10:45:19;;;;;;;26.25;5.05;;;;;;;;;;5017797;28;92347;-73
2022/01/30 10:47:45;;;;;;;34.70;5.72;;;;;;;;;;5020505;28;92929;-73
2022/01/30 10:50:19;;;;;;;41.42;6.15;;;;;;;;;;5017163;28;92394;-73
2022/01/30 10:52:55;;;;;;;31.02;5.35;;;;;;;;;;5017550;28;93312;-72
2022/01/30 10:55:35;;;;;;;31.55;4.43;;;;;;;;;;4982230;28;92944;-72
2022/01/30 10:58:02;;;;;;;33.05;5.95;;;;;;;;;;5016865;28;92230;-75
2022/01/30 11:00:55;;;;;;;34.85;6.75;;;;;;;;;;5017507;28;94144;-74
2022/01/30 11:03:35;;;;;;;33.08;5.68;;;;;;;;;;5011313;28;96285;-72
2022/01/30 11:06:01;;;;;;;39.08;5.45;;;;;;;;;;5017728;28;93397;-74
2022/01/30 11:08:32;;;;;;;42.97;5.20;;;;;;;;;;5017631;28;93479;-72
2022/01/30 11:11:03;;;;;;;34.53;5.05;;;;;;;;;;5020411;28;93801;-77
2022/01/30 11:13:33;;;;;;;32.65;5.68;;;;;;;;;;5017625;28;93435;-73
2022/01/30 11:16:56;;;;;;;30.85;6.25;;;;;;;;;;5017274;28;93528;-73
2022/01/30 11:18:48;;;;;;;29.08;5.75;;;;;;;;;;5017319;28;92585;-72
2022/01/30 11:21:20;;;;;;;34.53;5.55;;;;;;;;;;5017703;28;92457;-74
2022/01/30 11:23:46;;;;;;;30.67;5.00;;;;;;;;;;5016381;28;94317;-74
2022/01/30 11:26:13;;;;;;;42.08;5.55;;;;;;;;;;5017459;28;92268;-73
2022/01/30 11:28:40;;;;;;;30.00;5.50;;;;;;;;;;5015954;28;94767;-73
2022/01/30 11:31:06;;;;;;;35.20;4.18;;;;;;;;;;5016992;28;93445;-73
2022/01/30 11:33:33;;;;;;;35.33;5.22;;;;;;;;;;5020362;28;92249;-73
2022/01/30 11:36:00;;;;;;;36.17;5.68;;;;;;;;;;5016953;28;94079;-73
2022/01/30 11:38:26;;;;;;;36.83;6.57;;;;;;;;;;5017097;28;92322;-72
2022/01/30 11:41:10;;;;;;;37.03;5.10;;;;;;;;;;5017206;28;93394;-72
2022/01/30 11:43:37;;;;;;;32.13;5.80;;;;;;;;;;5017009;28;93086;-72
2022/01/30 11:46:14;;;;;;;33.67;5.40;;;;;;;;;;5017753;28;91529;-73
2022/01/30 11:48:41;;;;;;;25.15;4.60;;;;;;;;;;5016576;28;92641;-75
2022/01/30 11:51:07;;;;;;;31.85;5.90;;;;;;;;;;5016881;28;93599;-73
2022/01/30 11:53:36;;;;;;;42.25;5.25;;;;;;;;;;5020754;28;95379;-76
2022/01/30 11:56:04;;;;;;;28.55;5.80;;;;;;;;;;5027859;28;93101;-75
2022/01/30 11:58:30;;;;;;;38.47;5.57;;;;;;;;;;5037239;28;92159;-75
2022/01/30 12:00:58;;;;;;;25.00;4.43;;;;;;;;;;5018899;28;96570;-76
2022/01/30 12:03:27;;;;;;;31.63;5.00;;;;;;;;;;5036191;28;92888;-76
2022/01/30 12:05:55;;;;;;;26.33;4.95;;;;;;;;;;5037121;28;92735;-75
2022/01/30 12:08:42;;;;;;;39.03;5.40;;;;;;;;;;5038343;27;92475;-75
2022/01/30 12:11:28;;;;;;;44.50;5.38;;;;;;;;;;5040825;28;93334;-75
2022/01/30 12:13:54;;;;;;;39.67;5.43;;;;;;;;;;5040347;28;92282;-76
2022/01/30 12:16:40;;;;;;;25.35;5.22;;;;;;;;;;5043370;28;93459;-75
2022/01/30 12:19:07;;;;;;;24.17;4.30;;;;;;;;;;5038216;28;94788;-76
2022/01/30 12:21:33;;;;;;;29.50;4.72;;;;;;;;;;5040366;28;95755;-76
2022/01/30 12:24:19;;;;;;;28.23;4.70;;;;;;;;;;5039945;28;94157;-75
2022/01/30 12:26:50;;;;;;;31.88;5.72;;;;;;;;;;5040325;28;92348;-75
2022/01/30 12:29:37;;;;;;;34.03;4.73;;;;;;;;;;5040131;28;92507;-75
2022/01/30 12:32:24;;;;;;;38.15;5.35;;;;;;;;;;5040152;28;93966;-76
2022/01/30 12:34:57;;;;;;;34.63;5.43;;;;;;;;;;5040092;28;93216;-75
2022/01/30 12:37:23;;;;;;;36.55;5.75;;;;;;;;;;5040669;28;92480;-78
2022/01/30 12:39:50;;;;;;;33.65;5.43;;;;;;;;;;5043041;28;93621;-75
2022/01/30 12:42:17;;;;;;;32.13;5.57;;;;;;;;;;5040055;28;93261;-73
2022/01/30 12:44:44;;;;;;;38.50;5.40;;;;;;;;;;5038517;28;95970;-75
2022/01/30 12:47:13;;;;;;;33.30;5.75;;;;;;;;;;5039444;28;92999;-75
2022/01/30 12:49:43;;;;;;;22.67;4.30;;;;;;;;;;5040020;28;92809;-75
2022/01/30 12:52:20;;;;;;;30.47;4.93;;;;;;;;;;5039535;28;93707;-76
2022/01/30 12:54:50;;;;;;;32.42;5.20;;;;;;;;;;5039709;28;92371;-75
2022/01/30 12:57:18;;;;;;;24.92;4.88;;;;;;;;;;5039899;28;93638;-75
2022/01/30 12:59:51;;;;;;;30.35;6.07;;;;;;;;;;5039089;28;93217;-75
2022/01/30 13:02:18;;;;;;;42.75;6.07;;;;;;;;;;5043545;28;91466;-75
2022/01/30 13:04:46;;;;;;;32.55;5.18;;;;;;;;;;5039925;28;93184;-75
2022/01/30 13:07:13;;;;;;;29.52;5.25;;;;;;;;;;5039721;28;92292;-74
2022/01/30 13:09:39;;;;;;;37.00;5.55;;;;;;;;;;5037999;28;94665;-75
2022/01/30 13:12:13;;;;;;;30.80;5.72;;;;;;;;;;5039101;28;93701;-75
2022/01/30 13:14:41;;;;;;;30.70;4.88;;;;;;;;;;5039857;28;92243;-76
2022/01/30 13:17:08;;;;;;;36.15;5.70;;;;;;;;;;5039496;28;92800;-76
2022/01/30 13:19:38;;;;;;;39.75;5.95;;;;;;;;;;5038451;28;93916;-76
2022/01/30 13:22:09;;;;;;;47.25;6.28;;;;;;;;;;5039378;28;92267;-76
2022/01/30 13:24:36;;;;;;;33.20;5.22;;;;;;;;;;5041937;28;93561;-76
2022/01/30 13:27:04;;;;;;;32.75;5.63;;;;;;;;;;5040050;28;91507;-75
2022/01/30 13:29:33;;;;;;;29.15;5.18;;;;;;;;;;5039354;28;92760;-75
2022/01/30 13:32:00;;;;;;;30.38;5.10;;;;;;;;;;5038757;28;93588;-73
2022/01/30 13:34:28;;;;;;;41.67;6.22;;;;;;;;;;5037650;28;94770;-75
2022/01/30 13:37:02;;;;;;;36.80;5.50;;;;;;;;;;5021472;28;95336;-76
2022/01/30 13:39:34;;;;;;;33.97;5.65;;;;;;;;;;5038743;28;93938;-75
2022/01/30 13:42:44;;;;;;;31.85;5.30;;;;;;;;;;5039252;28;92260;-74
2022/01/30 13:47:52;;;;;;;27.27;5.45;;;;;;;;;;5041574;28;93468;-76
2022/01/30 13:50:20;;;;;;;27.48;5.13;;;;;;;;;;5038822;28;93512;-74
2022/01/30 13:52:46;;;;;;;24.48;4.72;;;;;;;;;;5029098;27;92388;-75
2022/01/30 13:55:13;;;;;;;37.22;6.65;;;;;;;;;;5028951;27;92647;-74
2022/01/30 13:57:42;;;;;;;30.85;5.18;;;;;;;;;;5030687;27;93110;-75
2022/01/30 14:00:13;;;;;;;35.72;12.32;;;;;;;;;;5010014;27;96087;-74
2022/01/30 14:02:51;;;;;;;40.53;10.40;;;;;;;;;;5026229;27;92428;-75
2022/01/30 14:05:32;;;;;;;36.42;6.93;;;;;;;;;;5025896;27;93528;-74
2022/01/30 14:08:01;;;;;;;35.38;7.18;;;;;;;;;;5008149;27;93378;-73
2022/01/30 14:10:28;;;;;;;35.90;9.02;;;;;;;;;;5026017;27;93622;-75
2022/01/30 14:12:58;;;;;;;34.97;5.30;;;;;;;;;;5026836;27;93554;-75
2022/01/30 14:15:24;;;;;;;31.60;5.70;;;;;;;;;;5029245;27;92328;-75
2022/01/30 14:18:06;;;;;;;28.98;7.10;;;;;;;;;;5026941;27;93634;-74
2022/01/30 14:20:32;;;;;;;;;;;;;;;;;;5026572;27;93719;-75
2022/01/30 14:23:04;;;;;;;37.47;8.00;;;;;;;;;;5025891;27;115463;-75
2022/01/30 14:25:31;;;;;;;37.63;5.78;;;;;;;;;;5026935;27;94747;-74
2022/01/30 14:27:58;;;;;;;33.08;5.40;;;;;;;;;;5027347;27;93695;-74
2022/01/30 14:30:35;;;;;;;37.22;8.25;;;;;;;;;;5032532;27;92288;-75
2022/01/30 14:33:01;;;;;;;37.75;8.95;;;;;;;;;;5024585;27;93713;-75
2022/01/30 14:35:34;;;;;;;41.38;6.10;;;;;;;;;;5026282;27;93216;-74
2022/01/30 14:38:05;;;;;;;46.80;6.25;;;;;;;;;;5010160;27;93566;-74
2022/01/30 14:40:31;;;;;;;44.92;10.60;;;;;;;;;;5025807;27;93690;-74
2022/01/30 14:42:58;;;;;;;39.17;7.13;;;;;;;;;;5025680;27;91514;-77
2022/01/30 14:45:25;;;;;;;28.85;6.15;;;;;;;;;;5029214;27;92590;-77
2022/01/30 14:47:51;;;;;;;35.47;6.75;;;;;;;;;;5026248;27;93496;-75
2022/01/30 14:50:17;;;;;;;42.35;8.63;;;;;;;;;;5024447;27;94757;-72
2022/01/30 14:52:44;;;;;;;33.05;6.20;;;;;;;;;;5034970;27;95888;-76
2022/01/30 14:55:10;;;;;;;31.38;5.97;;;;;;;;;;5037975;28;92343;-76
2022/01/30 14:57:37;;;;;;;41.78;9.13;;;;;;;;;;5037935;28;93300;-75
2022/01/30 15:00:03;;;;;;;32.72;6.32;;;;;;;;;;5037787;28;93950;-77
2022/01/30 15:02:30;;;;;;;43.03;9.32;;;;;;;;;;5037650;28;92317;-75
2022/01/30 15:04:56;;;;;;;33.90;10.85;;;;;;;;;;5037187;28;94727;-75
2022/01/30 15:07:23;;;;;;;36.28;6.35;;;;;;;;;;5037473;28;92811;-76
2022/01/30 15:09:49;;;;;;;30.23;5.82;;;;;;;;;;5037213;28;92463;-76
2022/01/30 15:12:16;;;;;;;28.42;5.13;;;;;;;;;;5037629;28;92502;-76
2022/01/30 15:14:52;;;;;;;26.63;6.00;;;;;;;;;;5039065;28;96450;-78
2022/01/30 15:17:22;;;;;;;29.63;6.43;;;;;;;;;;5037657;28;95548;-76
2022/01/30 15:20:05;;;;;;;31.02;10.27;;;;;;;;;;5037427;28;92992;-75
2022/01/30 15:22:32;;;;;;;37.10;10.57;;;;;;;;;;5036930;28;92305;-75
2022/01/30 15:24:58;;;;;;;36.53;14.52;;;;;;;;;;5036748;28;93368;-73
2022/01/30 15:27:26;;;;;;;30.63;9.32;;;;;;;;;;5036511;28;93610;-73
2022/01/30 15:29:54;;;;;;;29.83;6.60;;;;;;;;;;5037082;28;92286;-74
2022/01/30 15:32:20;;;;;;;29.52;5.25;;;;;;;;;;5037946;28;92791;-76
2022/01/30 15:34:47;;;;;;;31.77;8.07;;;;;;;;;;5037194;28;93566;-75
2022/01/30 15:37:13;;;;;;;35.53;7.15;;;;;;;;;;5040607;28;92136;-76
2022/01/30 15:39:40;;;;;;;29.00;7.05;;;;;;;;;;5035453;28;95794;-73
2022/01/30 15:42:08;;;;;;;42.25;10.20;;;;;;;;;;5037466;28;92335;-73
2022/01/30 15:50:16;;;;;;;31.40;7.30;;;;;;;;;;5037362;28;92287;-74
2022/01/30 15:52:42;;;;;;;28.35;7.15;;;;;;;;;;5036617;28;93577;-74